sensor_id;sensor_type;location;lat;lon;timestamp;pressure;altitude;pressure_sealevel;temperature;humidity
62524;BME280;53689;56.878;60.672;2024-03-06T00:01:22;97942.34;;;24.79;23.45
62524;BME280;53689;56.878;60.672;2024-03-06T00:03:52;97939.63;;;24.79;23.39
62524;BME280;53689;56.878;60.672;2024-03-06T00:06:20;97933.38;;;24.79;22.54
62524;BME280;53689;56.878;60.672;2024-03-06T00:08:48;97934.22;;;24.79;22.75
62524;BME280;53689;56.878;60.672;2024-03-06T00:11:16;97929.41;;;24.82;21.62
62524;BME280;53689;56.878;60.672;2024-03-06T00:13:44;97932.56;;;24.78;22.77
62524;BME280;53689;56.878;60.672;2024-03-06T00:16:12;97924.03;;;24.75;22.52
62524;BME280;53689;56.878;60.672;2024-03-06T00:18:42;97932.97;;;24.75;22.93
62524;BME280;53689;56.878;60.672;2024-03-06T00:21:12;97927.56;;;24.75;23.20
62524;BME280;53689;56.878;60.672;2024-03-06T00:23:40;97930.25;;;24.75;23.10
62524;BME280;53689;56.878;60.672;2024-03-06T00:26:08;97935.28;;;24.78;21.56
62524;BME280;53689;56.878;60.672;2024-03-06T00:28:36;97934.66;;;24.76;22.71
62524;BME280;53689;56.878;60.672;2024-03-06T00:31:05;97930.25;;;24.75;22.76
62524;BME280;53689;56.878;60.672;2024-03-06T00:33:33;97934.03;;;24.74;22.20
62524;BME280;53689;56.878;60.672;2024-03-06T00:36:01;97936.53;;;24.76;22.49
62524;BME280;53689;56.878;60.672;2024-03-06T00:38:30;97936.53;;;24.76;22.75
62524;BME280;53689;56.878;60.672;2024-03-06T00:40:58;97933.22;;;24.74;22.89
62524;BME280;53689;56.878;60.672;2024-03-06T00:43:26;97932.38;;;24.73;22.38
62524;BME280;53689;56.878;60.672;2024-03-06T00:45:54;97931.56;;;24.73;22.52
62524;BME280;53689;56.878;60.672;2024-03-06T00:48:21;97936.13;;;24.72;22.70
62524;BME280;53689;56.878;60.672;2024-03-06T00:50:49;97934.03;;;24.74;22.24
62524;BME280;53689;56.878;60.672;2024-03-06T00:53:17;97932.00;;;24.70;22.42
62524;BME280;53689;56.878;60.672;2024-03-06T00:55:47;97934.28;;;24.73;22.60
62524;BME280;53689;56.878;60.672;2024-03-06T00:58:15;97936.13;;;24.72;22.92
62524;BME280;53689;56.878;60.672;2024-03-06T01:00:43;97936.97;;;24.73;23.13
62524;BME280;53689;56.878;60.672;2024-03-06T01:03:11;97935.09;;;24.73;23.39
62524;BME280;53689;56.878;60.672;2024-03-06T01:05:38;97935.09;;;24.73;23.35
62524;BME280;53689;56.878;60.672;2024-03-06T01:08:06;97936.13;;;24.72;22.69
62524;BME280;53689;56.878;60.672;2024-03-06T01:10:34;97934.50;;;24.71;23.34
62524;BME280;53689;56.878;60.672;2024-03-06T01:13:04;97945.31;;;24.71;22.71
62524;BME280;53689;56.878;60.672;2024-03-06T01:15:31;97938.25;;;24.70;22.95
62524;BME280;53689;56.878;60.672;2024-03-06T01:17:59;97941.56;;;24.72;22.72
62524;BME280;53689;56.878;60.672;2024-03-06T01:20:27;97941.78;;;24.71;23.20
62524;BME280;53689;56.878;60.672;2024-03-06T01:22:55;97948.63;;;24.73;23.23
62524;BME280;53689;56.878;60.672;2024-03-06T01:25:23;97941.78;;;24.71;23.41
62524;BME280;53689;56.878;60.672;2024-03-06T01:27:50;97946.59;;;24.69;22.54
62524;BME280;53689;56.878;60.672;2024-03-06T01:30:19;97953.66;;;24.70;22.60
62524;BME280;53689;56.878;60.672;2024-03-06T01:32:47;97954.97;;;24.67;23.64
62524;BME280;53689;56.878;60.672;2024-03-06T01:35:15;97955.56;;;24.69;23.40
62524;BME280;53689;56.878;60.672;2024-03-06T01:37:43;97953.06;;;24.67;22.99
62524;BME280;53689;56.878;60.672;2024-03-06T01:40:11;97947.28;;;24.64;22.78
62524;BME280;53689;56.878;60.672;2024-03-06T01:42:39;97952.00;;;24.69;23.64
62524;BME280;53689;56.878;60.672;2024-03-06T01:45:08;97958.69;;;24.66;22.43
62524;BME280;53689;56.878;60.672;2024-03-06T01:47:38;97954.13;;;24.66;23.47
62524;BME280;53689;56.878;60.672;2024-03-06T01:50:07;97962.91;;;24.62;23.74
62524;BME280;53689;56.878;60.672;2024-03-06T01:52:36;97963.75;;;24.62;23.10
62524;BME280;53689;56.878;60.672;2024-03-06T01:55:07;97961.84;;;24.63;22.59
62524;BME280;53689;56.878;60.672;2024-03-06T01:57:35;97954.34;;;24.65;23.40
62524;BME280;53689;56.878;60.672;2024-03-06T02:00:05;97951.63;;;24.65;23.44
62524;BME280;53689;56.878;60.672;2024-03-06T02:02:34;97952.69;;;24.64;21.71
62524;BME280;53689;56.878;60.672;2024-03-06T02:05:04;97961.41;;;24.66;23.73
62524;BME280;53689;56.878;60.672;2024-03-06T02:07:32;97963.06;;;24.67;21.92
62524;BME280;53689;56.878;60.672;2024-03-06T02:10:01;97953.91;;;24.68;22.49
62524;BME280;53689;56.878;60.672;2024-03-06T02:12:28;97962.84;;;24.69;22.67
62524;BME280;53689;56.878;60.672;2024-03-06T02:14:56;97960.13;;;24.69;22.78
62524;BME280;53689;56.878;60.672;2024-03-06T02:17:24;97961.63;;;24.64;23.28
62524;BME280;53689;56.878;60.672;2024-03-06T02:19:52;97972.84;;;24.68;22.63
62524;BME280;53689;56.878;60.672;2024-03-06T02:22:21;97967.44;;;24.68;21.93
62524;BME280;53689;56.878;60.672;2024-03-06T02:24:49;97966.13;;;24.71;22.52
62524;BME280;53689;56.878;60.672;2024-03-06T02:27:17;97962.03;;;24.68;23.52
62524;BME280;53689;56.878;60.672;2024-03-06T02:29:45;97964.47;;;24.70;22.55
62524;BME280;53689;56.878;60.672;2024-03-06T02:32:13;97966.38;;;24.69;22.85
62524;BME280;53689;56.878;60.672;2024-03-06T02:34:41;97965.53;;;24.69;23.18
62524;BME280;53689;56.878;60.672;2024-03-06T02:37:09;97970.94;;;24.69;22.24
62524;BME280;53689;56.878;60.672;2024-03-06T02:39:39;97968.59;;;23.59;22.30
62524;BME280;53689;56.878;60.672;2024-03-06T02:42:06;97972.09;;;24.17;21.37
62524;BME280;53689;56.878;60.672;2024-03-06T02:44:35;97966.88;;;24.41;22.22
62524;BME280;53689;56.878;60.672;2024-03-06T02:47:03;97975.00;;;24.41;23.00
62524;BME280;53689;56.878;60.672;2024-03-06T02:49:31;97968.09;;;24.45;22.76
62524;BME280;53689;56.878;60.672;2024-03-06T02:51:59;97971.19;;;24.48;22.73
62524;BME280;53689;56.878;60.672;2024-03-06T02:54:27;97975.31;;;24.51;21.99
62524;BME280;53689;56.878;60.672;2024-03-06T02:56:56;97972.53;;;24.39;21.11
62524;BME280;53689;56.878;60.672;2024-03-06T02:59:24;97967.44;;;24.49;22.29
62524;BME280;53689;56.878;60.672;2024-03-06T03:01:52;97976.34;;;24.50;21.35
62524;BME280;53689;56.878;60.672;2024-03-06T03:04:20;97974.28;;;24.52;22.49
62524;BME280;53689;56.878;60.672;2024-03-06T03:06:48;97977.78;;;24.52;22.36
62524;BME280;53689;56.878;60.672;2024-03-06T03:09:15;97982.16;;;24.53;21.92
62524;BME280;53689;56.878;60.672;2024-03-06T03:11:43;97977.56;;;24.54;22.27
62524;BME280;53689;56.878;60.672;2024-03-06T03:14:12;97988.16;;;24.56;22.24
62524;BME280;53689;56.878;60.672;2024-03-06T03:16:40;97987.94;;;24.57;22.01
62524;BME280;53689;56.878;60.672;2024-03-06T03:19:09;97991.50;;;24.58;22.96
62524;BME280;53689;56.878;60.672;2024-03-06T03:21:36;97999.63;;;24.58;21.73
62524;BME280;53689;56.878;60.672;2024-03-06T03:24:04;97990.66;;;24.57;22.58
62524;BME280;53689;56.878;60.672;2024-03-06T03:26:33;97986.09;;;24.58;21.81
62524;BME280;53689;56.878;60.672;2024-03-06T03:29:00;97979.59;;;24.59;21.75
62524;BME280;53689;56.878;60.672;2024-03-06T03:31:30;97996.66;;;24.59;22.68
62524;BME280;53689;56.878;60.672;2024-03-06T03:33:57;97994.78;;;24.60;22.36
62524;BME280;53689;56.878;60.672;2024-03-06T03:36:25;97992.09;;;24.60;22.47
62524;BME280;53689;56.878;60.672;2024-03-06T03:38:53;97990.56;;;24.64;22.58
62524;BME280;53689;56.878;60.672;2024-03-06T03:41:21;97998.69;;;24.64;22.44
62524;BME280;53689;56.878;60.672;2024-03-06T03:43:49;97989.97;;;24.62;22.62
62524;BME280;53689;56.878;60.672;2024-03-06T03:46:16;97990.81;;;24.62;21.67
62524;BME280;53689;56.878;60.672;2024-03-06T03:48:45;97995.38;;;24.62;21.63
62524;BME280;53689;56.878;60.672;2024-03-06T03:51:13;97998.94;;;24.62;22.35
62524;BME280;53689;56.878;60.672;2024-03-06T03:53:41;97993.75;;;24.61;22.53
62524;BME280;53689;56.878;60.672;2024-03-06T03:56:09;97999.75;;;24.63;21.59
62524;BME280;53689;56.878;60.672;2024-03-06T03:58:38;97994.56;;;24.61;23.12
62524;BME280;53689;56.878;60.672;2024-03-06T04:01:06;97991.50;;;24.58;22.82
62524;BME280;53689;56.878;60.672;2024-03-06T04:03:34;97994.56;;;24.61;22.89
62524;BME280;53689;56.878;60.672;2024-03-06T04:06:03;97995.84;;;24.59;22.69
62524;BME280;53689;56.878;60.672;2024-03-06T04:08:30;98005.63;;;24.60;21.45
62524;BME280;53689;56.878;60.672;2024-03-06T04:10:58;97995.84;;;24.59;22.31
62524;BME280;53689;56.878;60.672;2024-03-06T04:13:26;97991.84;;;24.61;23.10
62524;BME280;53689;56.878;60.672;2024-03-06T04:15:54;97989.13;;;24.61;20.90
62524;BME280;53689;56.878;60.672;2024-03-06T04:18:22;97993.28;;;24.64;21.77
62524;BME280;53689;56.878;60.672;2024-03-06T04:20:50;97991.63;;;24.63;22.65
62524;BME280;53689;56.878;60.672;2024-03-06T04:23:19;97996.22;;;24.62;22.19
62524;BME280;53689;56.878;60.672;2024-03-06T04:25:47;97996.00;;;24.64;21.96
62524;BME280;53689;56.878;60.672;2024-03-06T04:28:15;97998.09;;;24.62;22.10
62524;BME280;53689;56.878;60.672;2024-03-06T04:30:43;97997.03;;;24.63;22.79
62524;BME280;53689;56.878;60.672;2024-03-06T04:33:11;97996.44;;;24.61;21.17
62524;BME280;53689;56.878;60.672;2024-03-06T04:35:39;98001.41;;;24.64;21.40
62524;BME280;53689;56.878;60.672;2024-03-06T04:38:07;97994.34;;;24.63;22.21
62524;BME280;53689;56.878;60.672;2024-03-06T04:40:36;98002.47;;;24.63;22.28
62524;BME280;53689;56.878;60.672;2024-03-06T04:43:04;98006.22;;;24.62;22.09
62524;BME280;53689;56.878;60.672;2024-03-06T04:45:31;97996.22;;;24.62;21.59
62524;BME280;53689;56.878;60.672;2024-03-06T04:47:59;98000.66;;;24.57;21.42
62524;BME280;53689;56.878;60.672;2024-03-06T04:50:27;98002.38;;;24.70;20.78
62524;BME280;53689;56.878;60.672;2024-03-06T04:52:55;97992.41;;;24.70;20.09
62524;BME280;53689;56.878;60.672;2024-03-06T04:55:23;97994.94;;;24.65;21.30
62524;BME280;53689;56.878;60.672;2024-03-06T04:57:53;97994.88;;;24.72;19.90
62524;BME280;53689;56.878;60.672;2024-03-06T05:00:22;97991.13;;;24.73;18.72
62524;BME280;53689;56.878;60.672;2024-03-06T05:02:49;97999.19;;;24.79;18.52
62524;BME280;53689;56.878;60.672;2024-03-06T05:05:35;97993.38;;;24.76;19.89
62524;BME280;53689;56.878;60.672;2024-03-06T05:08:20;97990.28;;;24.72;21.15
62524;BME280;53689;56.878;60.672;2024-03-06T05:11:06;97993.66;;;24.67;21.96
62524;BME280;53689;56.878;60.672;2024-03-06T05:13:52;97991.78;;;24.68;22.39
62524;BME280;53689;56.878;60.672;2024-03-06T05:16:37;97996.16;;;24.69;21.30
62524;BME280;53689;56.878;60.672;2024-03-06T05:19:23;97995.69;;;24.72;20.54
62524;BME280;53689;56.878;60.672;2024-03-06T05:22:08;97999.47;;;24.71;20.80
62524;BME280;53689;56.878;60.672;2024-03-06T05:24:53;97995.88;;;24.77;20.65
62524;BME280;53689;56.878;60.672;2024-03-06T05:27:38;97996.91;;;24.76;20.70
62524;BME280;53689;56.878;60.672;2024-03-06T05:30:25;97994.03;;;24.71;20.79
62524;BME280;53689;56.878;60.672;2024-03-06T05:33:12;97991.78;;;24.68;21.05
62524;BME280;53689;56.878;60.672;2024-03-06T05:35:57;97996.53;;;24.73;21.75
62524;BME280;53689;56.878;60.672;2024-03-06T05:38:42;98000.41;;;24.58;21.24
62524;BME280;53689;56.878;60.672;2024-03-06T05:41:27;98004.69;;;24.66;22.90
62524;BME280;53689;56.878;60.672;2024-03-06T05:44:13;97995.25;;;24.57;21.52
62524;BME280;53689;56.878;60.672;2024-03-06T05:47:00;98006.22;;;24.62;22.32
62524;BME280;53689;56.878;60.672;2024-03-06T05:49:44;98001.41;;;24.64;22.05
62524;BME280;53689;56.878;60.672;2024-03-06T05:52:29;97998.69;;;24.64;20.78
62524;BME280;53689;56.878;60.672;2024-03-06T05:55:15;97993.53;;;24.62;21.90
62524;BME280;53689;56.878;60.672;2024-03-06T05:58:00;98004.50;;;24.67;21.91
62524;BME280;53689;56.878;60.672;2024-03-06T06:00:42;97992.91;;;24.60;20.24
62524;BME280;53689;56.878;60.672;2024-03-06T06:03:11;97995.47;;;24.55;21.44
62524;BME280;53689;56.878;60.672;2024-03-06T06:05:39;97992.84;;;24.67;21.61
62524;BME280;53689;56.878;60.672;2024-03-06T06:08:07;97984.09;;;24.65;19.79
62524;BME280;53689;56.878;60.672;2024-03-06T06:10:35;97997.22;;;24.68;19.53
62524;BME280;53689;56.878;60.672;2024-03-06T06:13:03;97996.75;;;24.71;20.47
62524;BME280;53689;56.878;60.672;2024-03-06T06:15:31;97997.22;;;24.68;21.27
62524;BME280;53689;56.878;60.672;2024-03-06T06:17:59;97999.91;;;24.68;22.01
62524;BME280;53689;56.878;60.672;2024-03-06T06:20:29;97996.97;;;24.70;20.27
62524;BME280;53689;56.878;60.672;2024-03-06T06:22:56;98004.41;;;24.74;21.82
62524;BME280;53689;56.878;60.672;2024-03-06T06:25:24;97997.72;;;24.77;18.78
62524;BME280;53689;56.878;60.672;2024-03-06T06:27:52;97991.16;;;24.66;20.10
62524;BME280;53689;56.878;60.672;2024-03-06T06:30:20;97994.56;;;24.61;20.51
62524;BME280;53689;56.878;60.672;2024-03-06T06:32:47;97987.44;;;24.23;21.47
62524;BME280;53689;56.878;60.672;2024-03-06T06:35:15;97979.22;;;24.55;21.98
62524;BME280;53689;56.878;60.672;2024-03-06T06:37:45;97988.22;;;24.49;22.01
62524;BME280;53689;56.878;60.672;2024-03-06T06:40:13;97982.16;;;24.53;21.36
62524;BME280;53689;56.878;60.672;2024-03-06T06:42:44;97980.72;;;24.51;18.88
62524;BME280;53689;56.878;60.672;2024-03-06T06:45:13;97989.22;;;24.55;21.96
62524;BME280;53689;56.878;60.672;2024-03-06T06:47:41;97986.56;;;24.29;20.61
62524;BME280;53689;56.878;60.672;2024-03-06T06:50:09;97993.25;;;24.45;20.02
62524;BME280;53689;56.878;60.672;2024-03-06T06:52:37;97991.31;;;24.52;21.40
62524;BME280;53689;56.878;60.672;2024-03-06T06:55:07;97995.53;;;24.48;22.57
62524;BME280;53689;56.878;60.672;2024-03-06T06:57:35;97985.78;;;24.47;22.13
62524;BME280;53689;56.878;60.672;2024-03-06T07:00:04;97983.81;;;24.55;23.05
62524;BME280;53689;56.878;60.672;2024-03-06T07:02:32;97980.97;;;24.49;20.32
62524;BME280;53689;56.878;60.672;2024-03-06T07:05:00;97985.53;;;24.49;20.63
62524;BME280;53689;56.878;60.672;2024-03-06T07:07:28;97981.84;;;24.43;19.16
62524;BME280;53689;56.878;60.672;2024-03-06T07:09:56;97973.44;;;24.51;21.47
62524;BME280;53689;56.878;60.672;2024-03-06T07:12:25;97983.81;;;24.55;21.23
62524;BME280;53689;56.878;60.672;2024-03-06T07:14:56;97977.19;;;24.50;19.37
62524;BME280;53689;56.878;60.672;2024-03-06T07:17:24;97973.81;;;24.55;21.19
62524;BME280;53689;56.878;60.672;2024-03-06T07:19:54;97976.59;;;24.48;21.09
62524;BME280;53689;56.878;60.672;2024-03-06T07:22:22;97976.59;;;24.48;18.53
62524;BME280;53689;56.878;60.672;2024-03-06T07:24:50;97971.91;;;24.56;21.13
62524;BME280;53689;56.878;60.672;2024-03-06T07:27:18;97981.34;;;24.53;20.29
62524;BME280;53689;56.878;60.672;2024-03-06T07:29:47;97978.84;;;24.51;21.52
62524;BME280;53689;56.878;60.672;2024-03-06T07:32:15;97975.75;;;24.48;21.46
62524;BME280;53689;56.878;60.672;2024-03-06T07:34:43;97974.41;;;24.38;20.55
62524;BME280;53689;56.878;60.672;2024-03-06T07:37:11;97976.53;;;24.55;19.69
62524;BME280;53689;56.878;60.672;2024-03-06T07:39:38;97975.09;;;24.52;18.86
62524;BME280;53689;56.878;60.672;2024-03-06T07:42:06;97972.91;;;24.61;18.54
62524;BME280;53689;56.878;60.672;2024-03-06T07:44:34;97975.97;;;24.46;19.53
62524;BME280;53689;56.878;60.672;2024-03-06T07:47:04;97974.69;;;24.49;20.28
62524;BME280;53689;56.878;60.672;2024-03-06T07:49:32;97976.44;;;23.92;21.84
62524;BME280;53689;56.878;60.672;2024-03-06T07:51:59;97977.09;;;23.17;23.01
62524;BME280;53689;56.878;60.672;2024-03-06T07:54:27;97972.19;;;24.03;19.64
62524;BME280;53689;56.878;60.672;2024-03-06T07:56:55;97970.88;;;24.13;20.49
62524;BME280;53689;56.878;60.672;2024-03-06T07:59:23;97965.91;;;24.09;20.23
62524;BME280;53689;56.878;60.672;2024-03-06T08:01:51;97967.91;;;24.21;18.64
62524;BME280;53689;56.878;60.672;2024-03-06T08:04:20;97975.94;;;24.28;20.01
62524;BME280;53689;56.878;60.672;2024-03-06T08:06:48;97972.03;;;24.23;20.47
62524;BME280;53689;56.878;60.672;2024-03-06T08:09:16;97967.91;;;24.21;21.20
62524;BME280;53689;56.878;60.672;2024-03-06T08:11:44;97980.34;;;24.29;19.61
62524;BME280;53689;56.878;60.672;2024-03-06T08:14:12;97972.50;;;24.20;21.14
62524;BME280;53689;56.878;60.672;2024-03-06T08:16:40;97977.69;;;24.41;19.90
62524;BME280;53689;56.878;60.672;2024-03-06T08:19:08;97974.84;;;24.35;21.40
62524;BME280;53689;56.878;60.672;2024-03-06T08:21:38;97973.72;;;24.43;20.14
62524;BME280;53689;56.878;60.672;2024-03-06T08:24:06;97971.22;;;24.42;19.77
62524;BME280;53689;56.878;60.672;2024-03-06T08:26:34;97963.06;;;24.48;20.46
62524;BME280;53689;56.878;60.672;2024-03-06T08:29:02;97969.06;;;24.50;20.94
62524;BME280;53689;56.878;60.672;2024-03-06T08:31:30;97971.56;;;24.52;20.71
62524;BME280;53689;56.878;60.672;2024-03-06T08:33:58;97965.31;;;24.51;20.71
62524;BME280;53689;56.878;60.672;2024-03-06T08:36:26;97973.44;;;24.51;21.85
62524;BME280;53689;56.878;60.672;2024-03-06T08:38:55;97964.47;;;24.51;21.43
62524;BME280;53689;56.878;60.672;2024-03-06T08:41:23;97962.16;;;24.55;20.43
62524;BME280;53689;56.878;60.672;2024-03-06T08:43:51;97964.03;;;24.54;21.29
62524;BME280;53689;56.878;60.672;2024-03-06T08:46:19;97961.09;;;24.56;20.91
62524;BME280;53689;56.878;60.672;2024-03-06T08:48:46;97965.47;;;24.57;20.42
62524;BME280;53689;56.878;60.672;2024-03-06T08:51:14;97972.09;;;24.61;21.10
62524;BME280;53689;56.878;60.672;2024-03-06T08:53:42;97966.88;;;24.59;21.07
62524;BME280;53689;56.878;60.672;2024-03-06T08:56:11;97967.13;;;24.58;21.32
62524;BME280;53689;56.878;60.672;2024-03-06T08:58:39;97955.25;;;24.77;20.12
62524;BME280;53689;56.878;60.672;2024-03-06T09:01:07;97955.31;;;24.71;20.42
62524;BME280;53689;56.878;60.672;2024-03-06T09:03:35;97962.44;;;24.65;21.94
62524;BME280;53689;56.878;60.672;2024-03-06T09:06:03;97960.97;;;24.50;20.38
62524;BME280;53689;56.878;60.672;2024-03-06T09:08:31;97957.38;;;24.57;21.24
62524;BME280;53689;56.878;60.672;2024-03-06T09:11:00;97954.66;;;24.57;20.64
62524;BME280;53689;56.878;60.672;2024-03-06T09:13:29;97953.16;;;23.91;21.96
62524;BME280;53689;56.878;60.672;2024-03-06T09:15:57;97955.44;;;24.20;22.30
62524;BME280;53689;56.878;60.672;2024-03-06T09:18:24;97952.53;;;24.40;22.33
62524;BME280;53689;56.878;60.672;2024-03-06T09:20:52;97953.72;;;24.44;19.51
62524;BME280;53689;56.878;60.672;2024-03-06T09:23:20;97951.25;;;24.61;19.11
62524;BME280;53689;56.878;60.672;2024-03-06T09:25:48;97945.91;;;24.55;19.55
62524;BME280;53689;56.878;60.672;2024-03-06T09:28:16;97949.91;;;24.52;22.00
62524;BME280;53689;56.878;60.672;2024-03-06T09:30:46;97943.06;;;24.49;21.59
62524;BME280;53689;56.878;60.672;2024-03-06T09:33:13;97949.91;;;24.52;20.50
62524;BME280;53689;56.878;60.672;2024-03-06T09:35:41;97954.72;;;24.50;21.82
62524;BME280;53689;56.878;60.672;2024-03-06T09:38:09;97947.88;;;24.66;18.96
62524;BME280;53689;56.878;60.672;2024-03-06T09:40:37;97945.84;;;24.61;21.38
62524;BME280;53689;56.878;60.672;2024-03-06T09:43:05;97947.81;;;24.54;21.31
62524;BME280;53689;56.878;60.672;2024-03-06T09:45:33;97951.94;;;24.57;19.75
62524;BME280;53689;56.878;60.672;2024-03-06T09:48:02;97950.44;;;24.61;20.79
62524;BME280;53689;56.878;60.672;2024-03-06T09:50:32;97945.78;;;24.68;18.99
62524;BME280;53689;56.878;60.672;2024-03-06T09:53:03;97940.78;;;24.65;19.18
62524;BME280;53689;56.878;60.672;2024-03-06T09:55:34;97945.84;;;24.61;18.60
62524;BME280;53689;56.878;60.672;2024-03-06T09:58:02;97948.19;;;24.76;18.35
62524;BME280;53689;56.878;60.672;2024-03-06T10:00:30;97947.66;;;24.67;18.54
62524;BME280;53689;56.878;60.672;2024-03-06T10:02:58;97949.38;;;24.62;18.44
62524;BME280;53689;56.878;60.672;2024-03-06T10:05:27;97942.03;;;24.69;18.31
62524;BME280;53689;56.878;60.672;2024-03-06T10:07:56;97956.31;;;24.58;19.29
62524;BME280;53689;56.878;60.672;2024-03-06T10:10:23;97949.38;;;24.62;19.11
62524;BME280;53689;56.878;60.672;2024-03-06T10:12:51;97943.97;;;24.62;18.28
62524;BME280;53689;56.878;60.672;2024-03-06T10:15:19;97949.22;;;24.75;17.98
62524;BME280;53689;56.878;60.672;2024-03-06T10:17:47;97954.28;;;24.72;21.87
62524;BME280;53689;56.878;60.672;2024-03-06T10:20:19;97954.97;;;24.67;19.99
62524;BME280;53689;56.878;60.672;2024-03-06T10:22:53;97945.63;;;24.63;21.46
62524;BME280;53689;56.878;60.672;2024-03-06T10:25:25;97944.56;;;24.64;22.24
62524;BME280;53689;56.878;60.672;2024-03-06T10:28:07;97943.38;;;24.60;20.64
62524;BME280;53689;56.878;60.672;2024-03-06T10:30:36;97944.56;;;24.64;20.09
62524;BME280;53689;56.878;60.672;2024-03-06T10:33:05;97949.00;;;24.77;19.44
62524;BME280;53689;56.878;60.672;2024-03-06T10:35:33;97946.16;;;24.72;19.98
62524;BME280;53689;56.878;60.672;2024-03-06T10:38:04;97946.75;;;24.74;20.32
62524;BME280;53689;56.878;60.672;2024-03-06T10:40:34;97952.53;;;24.77;18.84
62524;BME280;53689;56.878;60.672;2024-03-06T10:43:03;97953.53;;;24.64;19.52
62524;BME280;53689;56.878;60.672;2024-03-06T10:45:32;97950.44;;;24.61;18.54
62524;BME280;53689;56.878;60.672;2024-03-06T10:48:04;97952.25;;;24.67;20.20
62524;BME280;53689;56.878;60.672;2024-03-06T10:50:33;97948.69;;;24.66;19.58
62524;BME280;53689;56.878;60.672;2024-03-06T10:53:07;97948.63;;;24.73;18.86
62524;BME280;53689;56.878;60.672;2024-03-06T10:55:37;97955.09;;;24.72;20.27
62524;BME280;53689;56.878;60.672;2024-03-06T10:58:05;97949.47;;;24.74;19.75
62524;BME280;53689;56.878;60.672;2024-03-06T11:00:33;97956.94;;;24.78;19.07
62524;BME280;53689;56.878;60.672;2024-03-06T11:03:02;97953.56;;;24.83;20.19
62524;BME280;53689;56.878;60.672;2024-03-06T11:05:30;97944.47;;;24.71;20.05
62524;BME280;53689;56.878;60.672;2024-03-06T11:07:58;97960.03;;;24.82;18.21
62524;BME280;53689;56.878;60.672;2024-03-06T11:10:34;97950.69;;;24.78;20.21
62524;BME280;53689;56.878;60.672;2024-03-06T11:13:03;97953.59;;;24.76;20.56
62524;BME280;53689;56.878;60.672;2024-03-06T11:15:31;97952.28;;;24.86;20.50
62524;BME280;53689;56.878;60.672;2024-03-06T11:18:04;97948.50;;;24.87;17.55
62524;BME280;53689;56.878;60.672;2024-03-06T11:20:52;97955.66;;;24.81;20.55
62524;BME280;53689;56.878;60.672;2024-03-06T11:23:19;97951.06;;;24.82;19.70
62524;BME280;53689;56.878;60.672;2024-03-06T11:26:00;97953.69;;;24.88;18.47
62524;BME280;53689;56.878;60.672;2024-03-06T11:28:29;97950.59;;;24.85;19.80
62524;BME280;53689;56.878;60.672;2024-03-06T11:30:58;97953.75;;;24.82;19.92
62524;BME280;53689;56.878;60.672;2024-03-06T11:33:34;97953.59;;;24.76;19.09
62524;BME280;53689;56.878;60.672;2024-03-06T11:36:19;97958.72;;;24.85;19.73
62524;BME280;53689;56.878;60.672;2024-03-06T11:38:51;97960.03;;;24.82;19.46
62524;BME280;53689;56.878;60.672;2024-03-06T11:41:21;97955.19;;;24.84;17.88
62524;BME280;53689;56.878;60.672;2024-03-06T11:43:53;97967.22;;;24.88;19.17
62524;BME280;53689;56.878;60.672;2024-03-06T11:46:21;97953.09;;;24.86;21.07
62524;BME280;53689;56.878;60.672;2024-03-06T11:48:53;97951.06;;;24.82;20.04
62524;BME280;53689;56.878;60.672;2024-03-06T11:51:22;97956.94;;;24.78;20.33
62524;BME280;53689;56.878;60.672;2024-03-06T11:53:51;97957.31;;;24.82;19.33
62524;BME280;53689;56.878;60.672;2024-03-06T11:56:21;97956.25;;;24.83;21.41
62524;BME280;53689;56.878;60.672;2024-03-06T11:58:49;97960.41;;;24.86;18.81
62524;BME280;53689;56.878;60.672;2024-03-06T12:01:17;97953.38;;;24.97;19.41
62524;BME280;53689;56.878;60.672;2024-03-06T12:03:44;97956.75;;;24.92;19.00
62524;BME280;53689;56.878;60.672;2024-03-06T12:06:15;97956.63;;;24.87;18.05
62524;BME280;53689;56.878;60.672;2024-03-06T12:08:43;97950.91;;;24.76;17.63
62524;BME280;53689;56.878;60.672;2024-03-06T12:11:11;97956.00;;;24.85;18.37
62524;BME280;53689;56.878;60.672;2024-03-06T12:13:41;97963.91;;;24.86;19.56
62524;BME280;53689;56.878;60.672;2024-03-06T12:16:10;97966.50;;;24.81;18.64
62524;BME280;53689;56.878;60.672;2024-03-06T12:18:38;97963.78;;;25.00;17.99
62524;BME280;53689;56.878;60.672;2024-03-06T12:21:07;97950.50;;;25.10;17.93
62524;BME280;53689;56.878;60.672;2024-03-06T12:23:35;97959.53;;;25.04;18.30
62524;BME280;53689;56.878;60.672;2024-03-06T12:26:04;97957.97;;;24.96;18.29
62524;BME280;53689;56.878;60.672;2024-03-06T12:28:33;97956.97;;;25.09;18.77
62524;BME280;53689;56.878;60.672;2024-03-06T12:31:04;97966.22;;;25.01;19.04
62524;BME280;53689;56.878;60.672;2024-03-06T12:33:32;97957.22;;;24.89;20.62
62524;BME280;53689;56.878;60.672;2024-03-06T12:36:03;97959.16;;;24.63;21.04
62524;BME280;53689;56.878;60.672;2024-03-06T12:38:32;97957.66;;;24.48;20.90
62524;BME280;53689;56.878;60.672;2024-03-06T12:41:00;97953.63;;;24.32;20.42
62524;BME280;53689;56.878;60.672;2024-03-06T12:43:28;97956.34;;;24.51;19.24
62524;BME280;53689;56.878;60.672;2024-03-06T12:45:56;97952.97;;;24.56;20.07
62524;BME280;53689;56.878;60.672;2024-03-06T12:48:27;97948.88;;;24.72;18.41
62524;BME280;53689;56.878;60.672;2024-03-06T12:50:54;97956.53;;;24.75;19.10
62524;BME280;53689;56.878;60.672;2024-03-06T12:53:22;97954.97;;;24.86;18.15
62524;BME280;53689;56.878;60.672;2024-03-06T12:55:51;97958.03;;;24.89;18.83
62524;BME280;53689;56.878;60.672;2024-03-06T12:58:19;97963.69;;;24.88;18.25
62524;BME280;53689;56.878;60.672;2024-03-06T13:00:46;97958.88;;;24.90;18.60
62524;BME280;53689;56.878;60.672;2024-03-06T13:03:14;97960.06;;;24.94;18.05